sensor_id;sensor_type;location;lat;lon;timestamp;P1;durP1;ratioP1;P2;durP2;ratioP2
26036;SDS011;13810;48.376;10.944;2022-07-23T00:00:19;13.50;;;8.88;;
26036;SDS011;13810;48.376;10.944;2022-07-23T00:00:50;13.35;;;9.95;;
26036;SDS011;13810;48.376;10.944;2022-07-23T00:01:21;11.80;;;8.77;;
26036;SDS011;13810;48.376;10.944;2022-07-23T00:01:53;9.32;;;7.95;;
26036;SDS011;13810;48.376;10.944;2022-07-23T00:02:23;9.50;;;7.05;;
26036;SDS011;13810;48.376;10.944;2022-07-23T00:02:54;9.73;;;7.93;;
26036;SDS011;13810;48.376;10.944;2022-07-23T00:03:25;12.55;;;8.30;;
26036;SDS011;13810;48.376;10.944;2022-07-23T00:03:56;9.50;;;7.68;;
26036;SDS011;13810;48.376;10.944;2022-07-23T00:04:27;12.32;;;7.20;;
26036;SDS011;13810;48.376;10.944;2022-07-23T00:04:57;15.55;;;8.00;;
26036;SDS011;13810;48.376;10.944;2022-07-23T00:05:28;10.80;;;7.40;;
26036;SDS011;13810;48.376;10.944;2022-07-23T00:05:59;12.10;;;7.70;;
26036;SDS011;13810;48.376;10.944;2022-07-23T00:06:29;13.48;;;7.00;;
26036;SDS011;13810;48.376;10.944;2022-07-23T00:07:00;10.98;;;6.82;;
26036;SDS011;13810;48.376;10.944;2022-07-23T00:07:31;8.98;;;7.40;;
26036;SDS011;13810;48.376;10.944;2022-07-23T00:08:02;9.85;;;7.80;;
26036;SDS011;13810;48.376;10.944;2022-07-23T00:08:32;9.85;;;7.40;;
26036;SDS011;13810;48.376;10.944;2022-07-23T00:09:03;10.85;;;6.95;;
26036;SDS011;13810;48.376;10.944;2022-07-23T00:09:33;11.93;;;7.80;;
26036;SDS011;13810;48.376;10.944;2022-07-23T00:10:04;10.80;;;7.70;;
26036;SDS011;13810;48.376;10.944;2022-07-23T00:10:35;11.82;;;7.13;;
26036;SDS011;13810;48.376;10.944;2022-07-23T00:11:06;11.48;;;7.22;;
26036;SDS011;13810;48.376;10.944;2022-07-23T00:11:37;14.27;;;8.02;;
26036;SDS011;13810;48.376;10.944;2022-07-23T00:12:07;8.88;;;7.45;;
26036;SDS011;13810;48.376;10.944;2022-07-23T00:12:38;11.82;;;7.28;;
26036;SDS011;13810;48.376;10.944;2022-07-23T00:13:09;9.93;;;7.82;;
26036;SDS011;13810;48.376;10.944;2022-07-23T00:13:40;8.75;;;6.70;;
26036;SDS011;13810;48.376;10.944;2022-07-23T00:14:11;13.10;;;7.60;;
26036;SDS011;13810;48.376;10.944;2022-07-23T00:14:42;8.98;;;7.40;;
26036;SDS011;13810;48.376;10.944;2022-07-23T00:15:12;10.40;;;7.78;;
26036;SDS011;13810;48.376;10.944;2022-07-23T00:15:43;14.85;;;7.32;;
26036;SDS011;13810;48.376;10.944;2022-07-23T00:16:14;11.30;;;7.70;;
26036;SDS011;13810;48.376;10.944;2022-07-23T00:16:44;11.35;;;7.85;;
26036;SDS011;13810;48.376;10.944;2022-07-23T00:17:15;11.45;;;7.90;;
26036;SDS011;13810;48.376;10.944;2022-07-23T00:17:46;10.88;;;8.35;;
26036;SDS011;13810;48.376;10.944;2022-07-23T00:18:16;11.77;;;7.60;;
26036;SDS011;13810;48.376;10.944;2022-07-23T00:18:47;10.25;;;8.15;;
26036;SDS011;13810;48.376;10.944;2022-07-23T00:19:18;10.73;;;7.13;;
26036;SDS011;13810;48.376;10.944;2022-07-23T00:19:48;11.25;;;7.72;;
26036;SDS011;13810;48.376;10.944;2022-07-23T00:20:19;10.77;;;7.88;;
26036;SDS011;13810;48.376;10.944;2022-07-23T00:20:50;9.90;;;8.25;;
26036;SDS011;13810;48.376;10.944;2022-07-23T00:21:21;11.90;;;8.38;;
26036;SDS011;13810;48.376;10.944;2022-07-23T00:21:51;11.25;;;7.82;;
26036;SDS011;13810;48.376;10.944;2022-07-23T00:22:22;13.57;;;8.43;;
26036;SDS011;13810;48.376;10.944;2022-07-23T00:22:54;12.23;;;7.55;;
26036;SDS011;13810;48.376;10.944;2022-07-23T00:23:25;17.65;;;8.85;;
26036;SDS011;13810;48.376;10.944;2022-07-23T00:23:56;10.13;;;7.82;;
26036;SDS011;13810;48.376;10.944;2022-07-23T00:24:27;11.18;;;9.25;;
26036;SDS011;13810;48.376;10.944;2022-07-23T00:24:57;12.90;;;8.40;;
26036;SDS011;13810;48.376;10.944;2022-07-23T00:25:28;16.90;;;8.93;;
26036;SDS011;13810;48.376;10.944;2022-07-23T00:25:59;13.27;;;8.43;;
26036;SDS011;13810;48.376;10.944;2022-07-23T00:26:29;14.32;;;8.27;;
26036;SDS011;13810;48.376;10.944;2022-07-23T00:27:00;10.25;;;8.15;;
26036;SDS011;13810;48.376;10.944;2022-07-23T00:27:30;9.60;;;8.60;;
26036;SDS011;13810;48.376;10.944;2022-07-23T00:28:01;11.00;;;8.18;;
26036;SDS011;13810;48.376;10.944;2022-07-23T00:28:33;12.55;;;8.13;;
26036;SDS011;13810;48.376;10.944;2022-07-23T00:29:04;13.27;;;8.40;;
26036;SDS011;13810;48.376;10.944;2022-07-23T00:29:35;10.48;;;8.13;;
26036;SDS011;13810;48.376;10.944;2022-07-23T00:30:06;9.55;;;8.35;;
26036;SDS011;13810;48.376;10.944;2022-07-23T00:30:37;12.48;;;7.75;;
26036;SDS011;13810;48.376;10.944;2022-07-23T00:31:08;9.82;;;7.35;;
26036;SDS011;13810;48.376;10.944;2022-07-23T00:31:38;10.55;;;8.10;;
26036;SDS011;13810;48.376;10.944;2022-07-23T00:32:09;11.70;;;7.15;;
26036;SDS011;13810;48.376;10.944;2022-07-23T00:32:49;12.07;;;7.85;;
26036;SDS011;13810;48.376;10.944;2022-07-23T00:33:23;10.77;;;8.07;;
26036;SDS011;13810;48.376;10.944;2022-07-23T00:33:53;9.63;;;7.10;;
26036;SDS011;13810;48.376;10.944;2022-07-23T00:34:26;12.82;;;7.50;;
26036;SDS011;13810;48.376;10.944;2022-07-23T00:34:57;8.40;;;7.13;;
26036;SDS011;13810;48.376;10.944;2022-07-23T00:35:29;13.75;;;7.10;;
26036;SDS011;13810;48.376;10.944;2022-07-23T00:36:01;9.43;;;6.95;;
26036;SDS011;13810;48.376;10.944;2022-07-23T00:36:32;11.38;;;7.80;;
26036;SDS011;13810;48.376;10.944;2022-07-23T00:37:02;10.38;;;7.22;;
26036;SDS011;13810;48.376;10.944;2022-07-23T00:37:33;8.73;;;6.75;;
26036;SDS011;13810;48.376;10.944;2022-07-23T00:38:04;13.07;;;7.18;;
26036;SDS011;13810;48.376;10.944;2022-07-23T00:38:35;8.88;;;6.35;;
26036;SDS011;13810;48.376;10.944;2022-07-23T00:39:05;10.77;;;7.18;;
26036;SDS011;13810;48.376;10.944;2022-07-23T00:39:36;11.73;;;7.30;;
26036;SDS011;13810;48.376;10.944;2022-07-23T00:40:07;11.45;;;6.78;;
26036;SDS011;13810;48.376;10.944;2022-07-23T00:40:38;11.82;;;6.82;;
26036;SDS011;13810;48.376;10.944;2022-07-23T00:41:09;7.85;;;6.53;;
26036;SDS011;13810;48.376;10.944;2022-07-23T00:41:40;7.68;;;5.72;;
26036;SDS011;13810;48.376;10.944;2022-07-23T00:42:11;9.77;;;6.68;;
26036;SDS011;13810;48.376;10.944;2022-07-23T00:42:41;8.73;;;6.93;;
26036;SDS011;13810;48.376;10.944;2022-07-23T00:43:12;10.15;;;7.28;;
26036;SDS011;13810;48.376;10.944;2022-07-23T00:43:43;8.68;;;5.85;;
26036;SDS011;13810;48.376;10.944;2022-07-23T00:44:17;9.23;;;6.65;;
26036;SDS011;13810;48.376;10.944;2022-07-23T00:44:53;9.65;;;6.25;;
26036;SDS011;13810;48.376;10.944;2022-07-23T00:45:24;7.50;;;6.13;;
26036;SDS011;13810;48.376;10.944;2022-07-23T00:45:55;9.55;;;6.68;;
26036;SDS011;13810;48.376;10.944;2022-07-23T00:46:25;8.35;;;5.93;;
26036;SDS011;13810;48.376;10.944;2022-07-23T00:46:57;6.38;;;5.47;;
26036;SDS011;13810;48.376;10.944;2022-07-23T00:47:28;6.63;;;5.78;;
26036;SDS011;13810;48.376;10.944;2022-07-23T00:47:59;11.38;;;6.07;;
26036;SDS011;13810;48.376;10.944;2022-07-23T00:48:30;8.80;;;5.55;;
26036;SDS011;13810;48.376;10.944;2022-07-23T00:49:01;7.97;;;6.22;;
26036;SDS011;13810;48.376;10.944;2022-07-23T00:49:31;6.47;;;5.50;;
26036;SDS011;13810;48.376;10.944;2022-07-23T00:50:02;7.43;;;5.65;;
26036;SDS011;13810;48.376;10.944;2022-07-23T00:50:34;11.43;;;5.07;;
26036;SDS011;13810;48.376;10.944;2022-07-23T00:51:05;6.97;;;5.40;;
26036;SDS011;13810;48.376;10.944;2022-07-23T00:51:35;7.03;;;5.30;;
26036;SDS011;13810;48.376;10.944;2022-07-23T00:52:06;9.02;;;5.05;;
26036;SDS011;13810;48.376;10.944;2022-07-23T00:52:37;5.95;;;5.35;;
26036;SDS011;13810;48.376;10.944;2022-07-23T00:53:08;9.05;;;5.72;;
26036;SDS011;13810;48.376;10.944;2022-07-23T00:53:40;6.70;;;5.40;;
26036;SDS011;13810;48.376;10.944;2022-07-23T00:54:11;12.98;;;5.07;;
26036;SDS011;13810;48.376;10.944;2022-07-23T00:54:41;7.55;;;5.93;;
26036;SDS011;13810;48.376;10.944;2022-07-23T00:55:12;9.15;;;5.65;;
26036;SDS011;13810;48.376;10.944;2022-07-23T00:55:43;7.97;;;5.60;;
26036;SDS011;13810;48.376;10.944;2022-07-23T00:56:14;8.95;;;5.97;;
26036;SDS011;13810;48.376;10.944;2022-07-23T00:56:45;7.68;;;5.70;;
26036;SDS011;13810;48.376;10.944;2022-07-23T00:57:16;8.77;;;5.07;;
26036;SDS011;13810;48.376;10.944;2022-07-23T00:57:47;7.28;;;5.68;;
26036;SDS011;13810;48.376;10.944;2022-07-23T00:58:19;7.95;;;5.95;;
26036;SDS011;13810;48.376;10.944;2022-07-23T00:58:50;7.18;;;6.20;;
26036;SDS011;13810;48.376;10.944;2022-07-23T00:59:21;11.50;;;5.85;;
26036;SDS011;13810;48.376;10.944;2022-07-23T00:59:52;11.55;;;6.20;;
26036;SDS011;13810;48.376;10.944;2022-07-23T01:00:22;9.10;;;6.22;;
26036;SDS011;13810;48.376;10.944;2022-07-23T01:00:53;8.52;;;5.70;;
26036;SDS011;13810;48.376;10.944;2022-07-23T01:01:23;7.53;;;5.57;;
26036;SDS011;13810;48.376;10.944;2022-07-23T01:01:54;6.43;;;5.82;;
26036;SDS011;13810;48.376;10.944;2022-07-23T01:02:25;9.10;;;6.00;;
26036;SDS011;13810;48.376;10.944;2022-07-23T01:02:56;8.93;;;5.53;;
26036;SDS011;13810;48.376;10.944;2022-07-23T01:03:27;6.70;;;5.72;;
26036;SDS011;13810;48.376;10.944;2022-07-23T01:03:57;7.05;;;5.72;;
26036;SDS011;13810;48.376;10.944;2022-07-23T01:04:28;7.30;;;5.90;;
26036;SDS011;13810;48.376;10.944;2022-07-23T01:04:59;7.75;;;5.55;;
26036;SDS011;13810;48.376;10.944;2022-07-23T01:05:30;6.97;;;5.10;;
26036;SDS011;13810;48.376;10.944;2022-07-23T01:06:00;6.70;;;5.07;;
26036;SDS011;13810;48.376;10.944;2022-07-23T01:06:35;5.93;;;5.32;;
26036;SDS011;13810;48.376;10.944;2022-07-23T01:07:07;8.95;;;5.70;;
26036;SDS011;13810;48.376;10.944;2022-07-23T01:07:38;7.32;;;5.22;;
26036;SDS011;13810;48.376;10.944;2022-07-23T01:08:08;8.75;;;5.53;;
26036;SDS011;13810;48.376;10.944;2022-07-23T01:08:39;10.80;;;5.45;;
26036;SDS011;13810;48.376;10.944;2022-07-23T01:09:10;6.47;;;5.78;;
26036;SDS011;13810;48.376;10.944;2022-07-23T01:09:40;6.85;;;5.30;;
26036;SDS011;13810;48.376;10.944;2022-07-23T01:10:12;7.97;;;4.88;;
26036;SDS011;13810;48.376;10.944;2022-07-23T01:11:02;6.72;;;4.88;;
26036;SDS011;13810;48.376;10.944;2022-07-23T01:11:33;5.72;;;4.78;;
26036;SDS011;13810;48.376;10.944;2022-07-23T01:12:05;7.32;;;5.57;;
26036;SDS011;13810;48.376;10.944;2022-07-23T01:12:36;6.20;;;5.10;;
26036;SDS011;13810;48.376;10.944;2022-07-23T01:13:08;7.07;;;5.32;;
26036;SDS011;13810;48.376;10.944;2022-07-23T01:13:43;6.45;;;5.03;;
26036;SDS011;13810;48.376;10.944;2022-07-23T01:14:14;7.00;;;6.00;;
26036;SDS011;13810;48.376;10.944;2022-07-23T01:14:56;10.30;;;6.78;;
26036;SDS011;13810;48.376;10.944;2022-07-23T01:15:28;10.65;;;6.65;;
26036;SDS011;13810;48.376;10.944;2022-07-23T01:15:59;11.43;;;7.32;;
26036;SDS011;13810;48.376;10.944;2022-07-23T01:16:29;9.95;;;6.90;;
26036;SDS011;13810;48.376;10.944;2022-07-23T01:17:00;12.93;;;7.35;;
26036;SDS011;13810;48.376;10.944;2022-07-23T01:17:31;13.77;;;6.90;;
26036;SDS011;13810;48.376;10.944;2022-07-23T01:18:02;10.23;;;6.75;;
26036;SDS011;13810;48.376;10.944;2022-07-23T01:18:34;10.02;;;6.72;;
26036;SDS011;13810;48.376;10.944;2022-07-23T01:19:04;10.10;;;7.75;;
26036;SDS011;13810;48.376;10.944;2022-07-23T01:19:36;9.40;;;7.38;;
26036;SDS011;13810;48.376;10.944;2022-07-23T01:20:07;10.48;;;7.03;;
26036;SDS011;13810;48.376;10.944;2022-07-23T01:20:38;9.65;;;7.68;;
26036;SDS011;13810;48.376;10.944;2022-07-23T01:21:10;10.75;;;8.05;;
26036;SDS011;13810;48.376;10.944;2022-07-23T01:21:49;10.15;;;7.43;;
26036;SDS011;13810;48.376;10.944;2022-07-23T01:22:21;15.57;;;7.93;;
26036;SDS011;13810;48.376;10.944;2022-07-23T01:22:53;12.43;;;7.47;;
26036;SDS011;13810;48.376;10.944;2022-07-23T01:23:24;9.18;;;7.65;;
26036;SDS011;13810;48.376;10.944;2022-07-23T01:23:55;9.35;;;7.43;;
26036;SDS011;13810;48.376;10.944;2022-07-23T01:24:25;11.02;;;7.47;;
26036;SDS011;13810;48.376;10.944;2022-07-23T01:24:56;10.63;;;6.55;;
26036;SDS011;13810;48.376;10.944;2022-07-23T01:25:26;10.52;;;7.00;;
26036;SDS011;13810;48.376;10.944;2022-07-23T01:25:57;11.73;;;7.30;;
26036;SDS011;13810;48.376;10.944;2022-07-23T01:26:28;12.05;;;7.38;;
26036;SDS011;13810;48.376;10.944;2022-07-23T01:26:58;13.50;;;7.63;;
26036;SDS011;13810;48.376;10.944;2022-07-23T01:27:29;10.80;;;7.53;;
26036;SDS011;13810;48.376;10.944;2022-07-23T01:28:00;10.80;;;7.60;;
26036;SDS011;13810;48.376;10.944;2022-07-23T01:28:30;10.68;;;8.27;;
26036;SDS011;13810;48.376;10.944;2022-07-23T01:29:02;10.05;;;7.72;;
26036;SDS011;13810;48.376;10.944;2022-07-23T01:29:33;13.15;;;7.75;;
26036;SDS011;13810;48.376;10.944;2022-07-23T01:30:04;12.50;;;8.05;;
26036;SDS011;13810;48.376;10.944;2022-07-23T01:30:35;11.75;;;8.00;;
26036;SDS011;13810;48.376;10.944;2022-07-23T01:31:06;12.30;;;8.35;;
26036;SDS011;13810;48.376;10.944;2022-07-23T01:31:36;12.38;;;7.75;;
26036;SDS011;13810;48.376;10.944;2022-07-23T01:32:07;13.95;;;8.60;;
26036;SDS011;13810;48.376;10.944;2022-07-23T01:32:38;14.25;;;8.95;;
26036;SDS011;13810;48.376;10.944;2022-07-23T01:33:09;13.32;;;8.27;;
26036;SDS011;13810;48.376;10.944;2022-07-23T01:33:39;16.27;;;8.77;;
26036;SDS011;13810;48.376;10.944;2022-07-23T01:34:10;15.18;;;9.48;;
26036;SDS011;13810;48.376;10.944;2022-07-23T01:34:41;13.15;;;9.38;;
26036;SDS011;13810;48.376;10.944;2022-07-23T01:35:11;12.57;;;8.27;;
26036;SDS011;13810;48.376;10.944;2022-07-23T01:35:42;15.23;;;9.32;;
26036;SDS011;13810;48.376;10.944;2022-07-23T01:36:13;14.35;;;9.13;;
26036;SDS011;13810;48.376;10.944;2022-07-23T01:36:44;12.15;;;8.80;;
26036;SDS011;13810;48.376;10.944;2022-07-23T01:37:15;15.05;;;9.65;;
26036;SDS011;13810;48.376;10.944;2022-07-23T01:37:45;14.20;;;9.35;;
26036;SDS011;13810;48.376;10.944;2022-07-23T01:38:16;13.30;;;8.80;;
26036;SDS011;13810;48.376;10.944;2022-07-23T01:38:47;13.73;;;9.25;;
26036;SDS011;13810;48.376;10.944;2022-07-23T01:39:18;15.77;;;10.07;;
26036;SDS011;13810;48.376;10.944;2022-07-23T01:39:49;11.45;;;8.52;;
26036;SDS011;13810;48.376;10.944;2022-07-23T01:40:19;12.15;;;9.15;;
26036;SDS011;13810;48.376;10.944;2022-07-23T01:40:50;15.43;;;8.65;;
26036;SDS011;13810;48.376;10.944;2022-07-23T01:41:21;13.15;;;8.77;;
26036;SDS011;13810;48.376;10.944;2022-07-23T01:41:51;17.90;;;10.07;;
26036;SDS011;13810;48.376;10.944;2022-07-23T01:42:22;18.20;;;10.38;;
26036;SDS011;13810;48.376;10.944;2022-07-23T01:42:53;13.82;;;9.55;;
26036;SDS011;13810;48.376;10.944;2022-07-23T01:43:24;19.73;;;10.27;;
26036;SDS011;13810;48.376;10.944;2022-07-23T01:43:55;15.07;;;9.48;;
26036;SDS011;13810;48.376;10.944;2022-07-23T01:44:26;15.68;;;9.25;;
26036;SDS011;13810;48.376;10.944;2022-07-23T01:44:56;18.58;;;9.82;;
26036;SDS011;13810;48.376;10.944;2022-07-23T01:45:27;16.20;;;9.82;;
26036;SDS011;13810;48.376;10.944;2022-07-23T01:45:58;17.73;;;10.13;;
26036;SDS011;13810;48.376;10.944;2022-07-23T01:46:28;16.98;;;9.73;;
26036;SDS011;13810;48.376;10.944;2022-07-23T01:46:59;13.88;;;10.07;;
26036;SDS011;13810;48.376;10.944;2022-07-23T01:47:30;16.00;;;9.90;;
26036;SDS011;13810;48.376;10.944;2022-07-23T01:48:00;14.13;;;10.07;;
26036;SDS011;13810;48.376;10.944;2022-07-23T01:48:31;15.88;;;9.90;;
26036;SDS011;13810;48.376;10.944;2022-07-23T01:49:02;15.98;;;10.13;;
26036;SDS011;13810;48.376;10.944;2022-07-23T01:49:32;15.38;;;10.50;;
26036;SDS011;13810;48.376;10.944;2022-07-23T01:50:03;16.02;;;10.80;;
26036;SDS011;13810;48.376;10.944;2022-07-23T01:50:34;15.38;;;10.40;;
26036;SDS011;13810;48.376;10.944;2022-07-23T01:51:05;16.23;;;10.82;;
26036;SDS011;13810;48.376;10.944;2022-07-23T01:51:35;21.45;;;9.90;;
26036;SDS011;13810;48.376;10.944;2022-07-23T01:52:06;13.65;;;10.07;;
26036;SDS011;13810;48.376;10.944;2022-07-23T01:52:40;22.17;;;10.52;;
26036;SDS011;13810;48.376;10.944;2022-07-23T01:53:11;14.43;;;9.68;;
26036;SDS011;13810;48.376;10.944;2022-07-23T01:53:42;19.77;;;10.70;;
26036;SDS011;13810;48.376;10.944;2022-07-23T01:54:12;19.88;;;10.05;;
26036;SDS011;13810;48.376;10.944;2022-07-23T01:54:43;18.00;;;9.80;;
26036;SDS011;13810;48.376;10.944;2022-07-23T01:55:14;16.02;;;9.98;;
26036;SDS011;13810;48.376;10.944;2022-07-23T01:55:44;19.05;;;11.07;;
26036;SDS011;13810;48.376;10.944;2022-07-23T01:56:15;18.38;;;10.15;;
26036;SDS011;13810;48.376;10.944;2022-07-23T01:56:46;20.00;;;10.52;;
26036;SDS011;13810;48.376;10.944;2022-07-23T01:57:16;17.15;;;10.35;;
26036;SDS011;13810;48.376;10.944;2022-07-23T01:57:47;14.65;;;9.80;;
26036;SDS011;13810;48.376;10.944;2022-07-23T01:58:17;16.67;;;10.50;;
26036;SDS011;13810;48.376;10.944;2022-07-23T01:58:48;14.48;;;9.90;;
26036;SDS011;13810;48.376;10.944;2022-07-23T01:59:19;13.23;;;9.63;;
26036;SDS011;13810;48.376;10.944;2022-07-23T01:59:50;13.13;;;9.85;;
26036;SDS011;13810;48.376;10.944;2022-07-23T02:00:21;14.15;;;9.95;;
26036;SDS011;13810;48.376;10.944;2022-07-23T02:00:51;19.17;;;10.45;;
26036;SDS011;13810;48.376;10.944;2022-07-23T02:01:22;16.63;;;10.05;;
26036;SDS011;13810;48.376;10.944;2022-07-23T02:01:53;19.85;;;10.55;;
26036;SDS011;13810;48.376;10.944;2022-07-23T02:02:24;14.80;;;10.38;;
26036;SDS011;13810;48.376;10.944;2022-07-23T02:02:55;16.10;;;11.15;;
26036;SDS011;13810;48.376;10.944;2022-07-23T02:03:27;15.70;;;9.95;;
26036;SDS011;13810;48.376;10.944;2022-07-23T02:03:57;13.80;;;9.50;;
26036;SDS011;13810;48.376;10.944;2022-07-23T02:04:28;14.50;;;10.82;;
26036;SDS011;13810;48.376;10.944;2022-07-23T02:04:59;13.13;;;9.73;;
26036;SDS011;13810;48.376;10.944;2022-07-23T02:05:29;15.02;;;10.00;;
26036;SDS011;13810;48.376;10.944;2022-07-23T02:06:01;12.52;;;10.13;;
26036;SDS011;13810;48.376;10.944;2022-07-23T02:06:32;16.77;;;10.90;;
26036;SDS011;13810;48.376;10.944;2022-07-23T02:07:03;16.35;;;10.68;;
26036;SDS011;13810;48.376;10.944;2022-07-23T02:07:34;17.02;;;10.68;;
26036;SDS011;13810;48.376;10.944;2022-07-23T02:08:05;19.17;;;10.57;;
26036;SDS011;13810;48.376;10.944;2022-07-23T02:08:36;14.02;;;10.73;;
26036;SDS011;13810;48.376;10.944;2022-07-23T02:09:06;16.45;;;11.13;;
26036;SDS011;13810;48.376;10.944;2022-07-23T02:09:37;16.05;;;11.25;;
26036;SDS011;13810;48.376;10.944;2022-07-23T02:10:08;14.75;;;10.43;;
26036;SDS011;13810;48.376;10.944;2022-07-23T02:10:39;14.48;;;10.50;;
26036;SDS011;13810;48.376;10.944;2022-07-23T02:11:09;18.60;;;11.10;;
26036;SDS011;13810;48.376;10.944;2022-07-23T02:11:40;16.60;;;11.07;;
26036;SDS011;13810;48.376;10.944;2022-07-23T02:12:11;15.50;;;10.95;;
26036;SDS011;13810;48.376;10.944;2022-07-23T02:12:42;17.88;;;11.48;;
26036;SDS011;13810;48.376;10.944;2022-07-23T02:13:13;16.52;;;11.07;;
26036;SDS011;13810;48.376;10.944;2022-07-23T02:13:43;21.50;;;11.60;;
26036;SDS011;13810;48.376;10.944;2022-07-23T02:14:14;18.50;;;11.50;;
26036;SDS011;13810;48.376;10.944;2022-07-23T02:14:44;18.35;;;12.00;;
26036;SDS011;13810;48.376;10.944;2022-07-23T02:15:15;17.77;;;11.35;;
26036;SDS011;13810;48.376;10.944;2022-07-23T02:15:46;16.77;;;11.10;;
26036;SDS011;13810;48.376;10.944;2022-07-23T02:16:17;14.35;;;10.85;;
26036;SDS011;13810;48.376;10.944;2022-07-23T02:16:48;19.40;;;11.63;;
26036;SDS011;13810;48.376;10.944;2022-07-23T02:17:19;16.02;;;10.82;;
26036;SDS011;13810;48.376;10.944;2022-07-23T02:17:49;16.45;;;11.43;;
26036;SDS011;13810;48.376;10.944;2022-07-23T02:18:20;16.15;;;11.98;;
26036;SDS011;13810;48.376;10.944;2022-07-23T02:18:50;14.63;;;9.98;;
26036;SDS011;13810;48.376;10.944;2022-07-23T02:19:21;14.60;;;11.05;;
26036;SDS011;13810;48.376;10.944;2022-07-23T02:19:52;14.95;;;10.82;;
26036;SDS011;13810;48.376;10.944;2022-07-23T02:20:22;19.42;;;11.07;;
26036;SDS011;13810;48.376;10.944;2022-07-23T02:20:53;16.33;;;10.82;;
26036;SDS011;13810;48.376;10.944;2022-07-23T02:21:24;18.30;;;10.60;;
26036;SDS011;13810;48.376;10.944;2022-07-23T02:21:54;19.00;;;10.13;;
26036;SDS011;13810;48.376;10.944;2022-07-23T02:22:25;14.15;;;10.55;;
26036;SDS011;13810;48.376;10.944;2022-07-23T02:22:56;15.30;;;9.70;;
26036;SDS011;13810;48.376;10.944;2022-07-23T02:23:26;16.00;;;9.88;;
26036;SDS011;13810;48.376;10.944;2022-07-23T02:23:57;13.68;;;10.48;;
26036;SDS011;13810;48.376;10.944;2022-07-23T02:24:28;15.40;;;10.25;;
26036;SDS011;13810;48.376;10.944;2022-07-23T02:24:58;15.38;;;10.73;;
26036;SDS011;13810;48.376;10.944;2022-07-23T02:25:29;14.82;;;10.10;;
26036;SDS011;13810;48.376;10.944;2022-07-23T02:26:00;14.57;;;10.15;;
26036;SDS011;13810;48.376;10.944;2022-07-23T02:26:30;18.40;;;10.15;;
26036;SDS011;13810;48.376;10.944;2022-07-23T02:27:04;12.90;;;10.25;;
26036;SDS011;13810;48.376;10.944;2022-07-23T02:27:35;14.63;;;10.57;;
26036;SDS011;13810;48.376;10.944;2022-07-23T02:28:06;18.98;;;11.25;;
26036;SDS011;13810;48.376;10.944;2022-07-23T02:28:37;14.05;;;10.45;;
26036;SDS011;13810;48.376;10.944;2022-07-23T02:29:08;16.13;;;10.45;;
26036;SDS011;13810;48.376;10.944;2022-07-23T02:29:38;13.90;;;10.52;;
26036;SDS011;13810;48.376;10.944;2022-07-23T02:30:09;16.08;;;10.95;;
26036;SDS011;13810;48.376;10.944;2022-07-23T02:30:40;17.38;;;10.35;;
26036;SDS011;13810;48.376;10.944;2022-07-23T02:31:11;15.32;;;10.77;;
26036;SDS011;13810;48.376;10.944;2022-07-23T02:31:42;18.25;;;10.27;;
26036;SDS011;13810;48.376;10.944;2022-07-23T02:32:12;13.48;;;10.27;;
26036;SDS011;13810;48.376;10.944;2022-07-23T02:32:43;18.83;;;11.30;;
26036;SDS011;13810;48.376;10.944;2022-07-23T02:33:14;13.73;;;10.00;;
26036;SDS011;13810;48.376;10.944;2022-07-23T02:33:44;14.52;;;10.20;;
26036;SDS011;13810;48.376;10.944;2022-07-23T02:34:15;15.75;;;10.50;;
26036;SDS011;13810;48.376;10.944;2022-07-23T02:34:45;16.67;;;10.98;;
26036;SDS011;13810;48.376;10.944;2022-07-23T02:35:16;15.55;;;11.30;;
26036;SDS011;13810;48.376;10.944;2022-07-23T02:35:47;16.65;;;10.93;;
26036;SDS011;13810;48.376;10.944;2022-07-23T02:36:17;15.10;;;10.15;;
26036;SDS011;13810;48.376;10.944;2022-07-23T02:36:48;12.40;;;10.15;;
26036;SDS011;13810;48.376;10.944;2022-07-23T02:37:19;17.17;;;10.90;;
26036;SDS011;13810;48.376;10.944;2022-07-23T02:37:49;14.77;;;11.45;;
26036;SDS011;13810;48.376;10.944;2022-07-23T02:38:20;16.17;;;10.68;;
26036;SDS011;13810;48.376;10.944;2022-07-23T02:38:51;19.27;;;10.93;;
26036;SDS011;13810;48.376;10.944;2022-07-23T02:39:21;13.55;;;10.15;;
26036;SDS011;13810;48.376;10.944;2022-07-23T02:39:52;16.70;;;10.75;;
26036;SDS011;13810;48.376;10.944;2022-07-23T02:40:23;16.55;;;10.90;;
26036;SDS011;13810;48.376;10.944;2022-07-23T02:40:53;13.30;;;10.60;;
26036;SDS011;13810;48.376;10.944;2022-07-23T02:41:24;13.43;;;10.57;;
26036;SDS011;13810;48.376;10.944;2022-07-23T02:41:55;13.95;;;10.93;;
26036;SDS011;13810;48.376;10.944;2022-07-23T02:42:25;12.30;;;9.95;;
26036;SDS011;13810;48.376;10.944;2022-07-23T02:42:56;13.20;;;10.32;;
26036;SDS011;13810;48.376;10.944;2022-07-23T02:43:27;12.88;;;10.40;;
26036;SDS011;13810;48.376;10.944;2022-07-23T02:43:57;14.65;;;10.40;;
26036;SDS011;13810;48.376;10.944;2022-07-23T02:44:28;15.35;;;10.70;;
26036;SDS011;13810;48.376;10.944;2022-07-23T02:44:59;14.95;;;10.55;;
26036;SDS011;13810;48.376;10.944;2022-07-23T02:45:29;17.05;;;10.60;;
26036;SDS011;13810;48.376;10.944;2022-07-23T02:46:00;14.63;;;9.80;;
26036;SDS011;13810;48.376;10.944;2022-07-23T02:46:31;14.38;;;11.02;;
26036;SDS011;13810;48.376;10.944;2022-07-23T02:47:01;16.02;;;11.45;;
26036;SDS011;13810;48.376;10.944;2022-07-23T02:47:32;12.98;;;10.38;;
26036;SDS011;13810;48.376;10.944;2022-07-23T02:48:03;14.65;;;10.45;;
26036;SDS011;13810;48.376;10.944;2022-07-23T02:48:34;18.20;;;10.77;;
26036;SDS011;13810;48.376;10.944;2022-07-23T02:49:05;15.75;;;11.00;;
26036;SDS011;13810;48.376;10.944;2022-07-23T02:49:35;17.73;;;10.90;;
26036;SDS011;13810;48.376;10.944;2022-07-23T02:50:06;15.18;;;10.32;;
26036;SDS011;13810;48.376;10.944;2022-07-23T02:50:37;13.00;;;10.63;;
26036;SDS011;13810;48.376;10.944;2022-07-23T02:51:08;14.65;;;11.23;;
26036;SDS011;13810;48.376;10.944;2022-07-23T02:51:39;13.65;;;10.05;;
26036;SDS011;13810;48.376;10.944;2022-07-23T02:52:09;14.57;;;10.45;;
26036;SDS011;13810;48.376;10.944;2022-07-23T02:52:40;15.52;;;11.27;;
26036;SDS011;13810;48.376;10.944;2022-07-23T02:53:11;14.48;;;10.63;;
26036;SDS011;13810;48.376;10.944;2022-07-23T02:53:41;16.58;;;10.57;;
26036;SDS011;13810;48.376;10.944;2022-07-23T02:54:12;16.60;;;11.43;;
26036;SDS011;13810;48.376;10.944;2022-07-23T02:54:43;14.45;;;11.45;;
26036;SDS011;13810;48.376;10.944;2022-07-23T02:55:13;16.33;;;11.48;;
26036;SDS011;13810;48.376;10.944;2022-07-23T02:55:44;15.23;;;10.07;;
26036;SDS011;13810;48.376;10.944;2022-07-23T02:56:15;13.07;;;10.50;;
26036;SDS011;13810;48.376;10.944;2022-07-23T02:56:45;16.70;;;11.18;;
26036;SDS011;13810;48.376;10.944;2022-07-23T02:57:16;14.48;;;10.82;;
26036;SDS011;13810;48.376;10.944;2022-07-23T02:57:47;12.52;;;9.85;;
26036;SDS011;13810;48.376;10.944;2022-07-23T02:58:17;17.20;;;11.63;;
26036;SDS011;13810;48.376;10.944;2022-07-23T02:58:48;16.55;;;11.50;;
26036;SDS011;13810;48.376;10.944;2022-07-23T02:59:19;13.02;;;11.00;;
26036;SDS011;13810;48.376;10.944;2022-07-23T02:59:49;13.77;;;10.50;;
26036;SDS011;13810;48.376;10.944;2022-07-23T03:00:20;15.88;;;10.40;;
26036;SDS011;13810;48.376;10.944;2022-07-23T03:00:51;15.30;;;10.55;;
26036;SDS011;13810;48.376;10.944;2022-07-23T03:01:21;15.20;;;10.82;;